Time;durP1;ratioP1;P1;durP2;ratioP2;P2;SDS_P1;SDS_P2;PMS_P1;PMS_P2;Temp;Humidity;BMP_temperature;BMP_pressure;BME280_temperature;BME280_humidity;BME280_pressure;Samples;Min_cycle;Max_cycle;Signal;HPM_P1;HPM_P2
2021/10/23 00:00:07;;;;;;;2.30;0.90;;;5.60;99.90;5.40;100872.00;;;;4938105;28;83116;-64
2021/10/23 00:02:33;;;;;;;1.50;0.70;;;5.60;99.90;5.40;100875.00;;;;4938380;28;83787;-63
2021/10/23 00:04:59;;;;;;;1.07;0.67;;;5.50;99.90;5.40;100883.00;;;;4937836;28;108477;-65
2021/10/23 00:07:24;;;;;;;1.90;0.83;;;5.60;99.90;5.30;100883.00;;;;4937922;28;107712;-64
2021/10/23 00:09:50;;;;;;;0.83;0.70;;;5.50;99.90;5.30;100889.00;;;;4936879;28;111729;-63
2021/10/23 00:12:16;;;;;;;0.57;0.57;;;5.50;99.90;5.30;100889.00;;;;4948768;28;111622;-63
2021/10/23 00:14:41;;;;;;;1.27;0.67;;;5.40;99.90;5.30;100896.00;;;;4935648;28;109299;-64
2021/10/23 00:17:07;;;;;;;1.50;0.83;;;5.60;99.90;5.20;100904.00;;;;4940768;28;107647;-64
2021/10/23 00:19:33;;;;;;;1.60;0.70;;;5.40;99.90;5.20;100903.00;;;;4922148;28;85061;-63
2021/10/23 00:21:59;;;;;;;3.80;0.83;;;5.80;99.90;5.20;100903.00;;;;4923194;28;83685;-65
2021/10/23 00:24:25;;;;;;;1.37;0.60;;;5.40;99.90;5.10;100905.00;;;;4940614;28;109202;-64
2021/10/23 00:26:51;;;;;;;1.77;0.63;;;5.30;99.90;5.10;100915.00;;;;4941772;28;95473;-64
2021/10/23 00:29:17;;;;;;;1.60;0.70;;;5.80;99.90;5.10;100915.00;;;;4941076;28;83122;-63
2021/10/23 00:31:42;;;;;;;1.37;0.93;;;5.30;99.90;5.10;100919.00;;;;4941721;28;110978;-64
2021/10/23 00:34:08;;;;;;;1.53;1.27;;;5.20;99.90;5.00;100923.00;;;;4940788;28;110051;-64
2021/10/23 00:36:34;;;;;;;5.47;0.97;;;5.20;99.90;5.00;100927.00;;;;4940497;28;102120;-64
2021/10/23 00:39:00;;;;;;;4.33;0.93;;;5.20;99.90;5.00;100925.00;;;;4940743;28;89753;-64
2021/10/23 00:41:25;;;;;;;6.50;0.77;;;5.20;99.90;4.90;100926.00;;;;4941348;28;110246;-64
2021/10/23 00:43:51;;;;;;;1.17;1.00;;;5.40;99.90;4.90;100921.00;;;;4941889;28;89293;-64
2021/10/23 00:46:17;;;;;;;6.20;1.00;;;5.10;99.90;4.80;100917.00;;;;4941564;28;82579;-65
2021/10/23 00:48:43;;;;;;;1.60;0.83;;;5.40;99.90;4.80;100920.00;;;;4938299;28;87765;-65
2021/10/23 00:51:10;;;;;;;1.23;0.80;;;5.10;99.90;4.80;100923.00;;;;4940812;28;90012;-63
2021/10/23 00:53:36;;;;;;;3.37;1.00;;;5.00;99.90;4.80;100926.00;;;;4940653;28;99908;-64
2021/10/23 00:56:03;;;;;;;4.63;1.30;;;5.00;99.90;4.80;100927.00;;;;4941639;28;81705;-64
2021/10/23 00:58:29;;;;;;;4.37;0.80;;;4.90;99.90;4.80;100919.00;;;;4940507;28;86954;-64
2021/10/23 01:00:55;;;;;;;1.17;0.90;;;4.90;99.90;4.80;100918.00;;;;4939459;28;113196;-64
2021/10/23 01:03:21;;;;;;;4.93;0.80;;;4.90;99.90;4.70;100926.00;;;;4940398;28;96517;-64
2021/10/23 01:05:47;;;;;;;2.00;0.80;;;4.90;99.90;4.80;100930.00;;;;4940443;28;107585;-64
2021/10/23 01:08:13;;;;;;;5.43;1.00;;;5.10;99.90;4.80;100919.00;;;;4939396;28;112412;-64
2021/10/23 01:10:40;;;;;;;0.97;0.40;;;4.90;99.90;4.80;100913.00;;;;4939878;28;94658;-64
2021/10/23 01:13:06;;;;;;;1.10;0.60;;;5.00;99.90;4.80;100925.00;;;;4940820;28;82392;-64
2021/10/23 01:15:34;;;;;;;4.17;1.13;;;4.90;99.90;4.80;100923.00;;;;4940106;28;109102;-64
2021/10/23 01:18:04;;;;;;;2.40;0.87;;;4.90;99.90;4.80;100919.00;;;;4941666;28;83605;-64
2021/10/23 01:20:32;;;;;;;1.07;0.70;;;4.90;99.90;4.80;100929.00;;;;4941074;28;82181;-65
2021/10/23 01:22:58;;;;;;;0.43;0.40;;;5.00;99.90;4.90;100934.00;;;;4940555;28;82556;-65
2021/10/23 01:25:27;;;;;;;2.60;0.87;;;4.90;99.90;4.90;100934.00;;;;4939364;28;98192;-66
2021/10/23 01:27:55;;;;;;;0.77;0.63;;;5.00;99.90;4.90;100937.00;;;;4940128;28;83772;-64
2021/10/23 01:30:23;;;;;;;0.40;0.40;;;5.10;99.90;4.90;100951.00;;;;4939115;28;101204;-64
2021/10/23 01:32:50;;;;;;;1.13;0.87;;;5.10;99.90;4.90;100937.00;;;;4940653;28;82390;-64
2021/10/23 01:35:16;;;;;;;2.13;0.83;;;5.20;99.90;4.90;100948.00;;;;4939569;28;86098;-64
2021/10/23 01:37:48;;;;;;;4.50;1.00;;;5.00;99.90;4.90;100954.00;;;;4940422;28;87891;-64
2021/10/23 01:40:22;;;;;;;2.33;1.20;;;5.00;99.90;4.90;100952.00;;;;4940234;28;82872;-64
2021/10/23 01:42:48;;;;;;;2.07;1.00;;;5.10;99.90;4.90;100959.00;;;;4940680;28;82651;-64
2021/10/23 01:45:15;;;;;;;3.00;0.90;;;5.00;99.90;4.90;100953.00;;;;4939662;28;109180;-63
2021/10/23 01:47:43;;;;;;;2.40;1.00;;;4.90;99.90;4.90;100955.00;;;;4940399;28;83754;-64
2021/10/23 01:50:20;;;;;;;2.43;0.50;;;5.30;99.90;4.80;100959.00;;;;4940063;28;82427;-63
2021/10/23 01:52:52;;;;;;;3.60;1.30;;;5.00;99.90;4.80;100960.00;;;;4939980;28;83790;-63
2021/10/23 01:55:18;;;;;;;1.13;0.50;;;5.00;99.90;4.80;100966.00;;;;4940486;28;82624;-65
2021/10/23 01:57:45;;;;;;;2.37;1.13;;;5.00;99.90;4.80;100969.00;;;;4940695;28;82636;-65
2021/10/23 02:00:14;;;;;;;0.73;0.70;;;5.00;99.90;4.80;100963.00;;;;4938350;28;88177;-64
2021/10/23 02:02:41;;;;;;;3.93;1.03;;;4.90;99.90;4.80;100972.00;;;;4940456;28;82626;-65
2021/10/23 02:05:07;;;;;;;0.97;0.70;;;5.00;99.90;4.80;100965.00;;;;4939939;28;82858;-64
2021/10/23 02:07:33;;;;;;;3.60;1.13;;;5.00;99.90;4.80;100973.00;;;;4940030;28;83928;-65
2021/10/23 02:09:59;;;;;;;2.53;0.97;;;5.60;99.90;4.80;100973.00;;;;4938061;28;83169;-64
2021/10/23 02:12:25;;;;;;;3.37;0.90;;;5.50;99.90;4.80;100973.00;;;;4939155;28;110941;-65
2021/10/23 02:14:51;;;;;;;1.33;0.90;;;5.20;99.90;4.80;100971.00;;;;4934320;28;109761;-65
2021/10/23 02:17:17;;;;;;;5.93;1.37;;;4.90;99.90;4.70;100978.00;;;;4939956;28;84442;-65
2021/10/23 02:19:42;;;;;;;1.17;0.70;;;5.00;99.90;4.80;100983.00;;;;4937333;28;91244;-65
2021/10/23 02:22:09;;;;;;;1.03;0.97;;;4.90;99.90;4.70;100988.00;;;;4949124;28;92230;-66
2021/10/23 02:24:39;;;;;;;1.53;0.90;;;4.90;99.90;4.70;100985.00;;;;4942627;28;82474;-64
2021/10/23 02:27:04;;;;;;;0.83;0.57;;;4.90;99.90;4.80;100999.00;;;;4953556;28;82951;-65
2021/10/23 02:29:30;;;;;;;1.47;0.90;;;5.20;99.90;4.70;100994.00;;;;4938587;28;113422;-65
2021/10/23 02:31:57;;;;;;;1.47;1.17;;;4.90;99.90;4.80;100999.00;;;;4944687;28;109993;-65
2021/10/23 02:34:22;;;;;;;5.20;0.87;;;4.90;99.90;4.80;100997.00;;;;4938472;28;109165;-65
2021/10/23 02:36:48;;;;;;;0.90;0.67;;;4.90;99.90;4.80;100999.00;;;;4938407;28;84878;-65
2021/10/23 02:39:14;;;;;;;1.63;1.20;;;5.00;99.90;4.80;101005.00;;;;4952937;28;82708;-63
2021/10/23 02:41:40;;;;;;;2.60;1.40;;;4.90;99.90;4.90;101018.00;;;;4963736;28;83790;-66
2021/10/23 02:44:06;;;;;;;2.90;0.97;;;5.00;99.90;4.90;101007.00;;;;4940843;28;96164;-65
2021/10/23 02:46:31;;;;;;;4.23;1.07;;;5.20;99.90;4.90;101008.00;;;;4932023;28;83805;-64
2021/10/23 02:48:57;;;;;;;2.90;0.93;;;5.00;99.90;4.90;101010.00;;;;4938912;28;83418;-64
2021/10/23 02:51:23;;;;;;;1.10;0.93;;;5.00;99.90;4.90;101005.00;;;;4958516;28;82912;-65
2021/10/23 02:53:49;;;;;;;2.43;1.13;;;5.10;99.90;5.00;101009.00;;;;4937829;28;108986;-65
2021/10/23 02:56:15;;;;;;;1.97;1.27;;;5.10;99.90;4.90;101003.00;;;;4938854;28;112597;-64
2021/10/23 02:58:41;;;;;;;7.23;1.47;;;5.10;99.90;5.00;100994.00;;;;4945443;28;82667;-65
2021/10/23 03:01:06;;;;;;;0.87;0.80;;;5.10;99.90;5.00;101009.00;;;;4940028;28;82896;-64
2021/10/23 03:03:32;;;;;;;2.33;1.00;;;5.10;99.90;5.00;101016.00;;;;4938583;28;99780;-65
2021/10/23 03:05:58;;;;;;;1.10;0.70;;;5.10;99.90;5.00;101019.00;;;;4927313;28;103518;-65
2021/10/23 03:08:23;;;;;;;1.23;0.90;;;5.10;99.90;4.90;101017.00;;;;4938878;28;84372;-66
2021/10/23 03:10:49;;;;;;;0.97;0.70;;;5.10;99.90;4.90;101027.00;;;;4948546;28;110414;-65
2021/10/23 03:13:17;;;;;;;3.27;1.03;;;5.10;99.90;4.90;101025.00;;;;4937402;28;105451;-64
2021/10/23 03:15:44;;;;;;;2.40;1.00;;;5.10;99.90;4.90;101023.00;;;;4944377;28;82825;-65
2021/10/23 03:18:10;;;;;;;2.50;1.43;;;5.10;99.90;4.90;101040.00;;;;4946175;28;83792;-65
2021/10/23 03:20:36;;;;;;;2.37;1.53;;;5.60;99.90;4.90;101042.00;;;;4939630;28;82788;-65
2021/10/23 03:23:02;;;;;;;3.87;1.10;;;5.20;99.90;4.90;101051.00;;;;4928163;28;109582;-65
2021/10/23 03:25:27;;;;;;;0.80;0.80;;;5.40;99.90;4.90;101046.00;;;;4924537;28;83718;-65
2021/10/23 03:27:53;;;;;;;3.73;1.57;;;5.30;99.90;4.90;101049.00;;;;4918305;28;112313;-65
2021/10/23 03:30:19;;;;;;;0.93;0.73;;;5.10;99.90;4.90;101056.00;;;;4936889;28;110339;-65
2021/10/23 03:32:45;;;;;;;5.67;1.57;;;5.00;99.90;4.90;101048.00;;;;4939199;28;108817;-65
2021/10/23 03:35:10;;;;;;;4.43;1.20;;;5.00;99.90;4.80;101048.00;;;;4940148;28;82700;-66
2021/10/23 03:37:36;;;;;;;2.53;1.07;;;5.10;99.90;4.80;101044.00;;;;4940149;28;113409;-64
2021/10/23 03:40:05;;;;;;;0.80;0.60;;;5.00;99.90;4.80;101055.00;;;;4936148;28;82731;-65
2021/10/23 03:42:31;;;;;;;0.90;0.80;;;5.00;99.90;4.80;101056.00;;;;4936281;28;99937;-65
2021/10/23 03:44:57;;;;;;;1.77;0.93;;;5.30;99.90;4.80;101055.00;;;;4946906;28;82657;-66
2021/10/23 03:47:23;;;;;;;3.67;1.00;;;5.00;99.90;4.80;101061.00;;;;4953798;28;111641;-64
2021/10/23 03:49:49;;;;;;;3.00;0.87;;;4.90;99.90;4.80;101069.00;;;;4961260;28;82038;-65
2021/10/23 03:52:32;;;;;;;1.80;0.90;;;5.30;99.90;4.80;101062.00;;;;4945193;28;82720;-63
2021/10/23 03:54:59;;;;;;;2.00;0.83;;;5.00;99.90;4.80;101066.00;;;;4932527;28;84567;-65
2021/10/23 03:57:25;;;;;;;5.87;1.20;;;5.00;99.90;4.80;101060.00;;;;4935904;28;114538;-63
2021/10/23 03:59:50;;;;;;;3.57;1.10;;;5.00;99.90;4.80;101084.00;;;;4949980;28;82718;-65
2021/10/23 04:02:16;;;;;;;3.47;0.90;;;5.00;99.90;4.80;101075.00;;;;4955720;28;107564;-65
2021/10/23 04:04:42;;;;;;;2.97;0.90;;;4.90;99.90;4.80;101083.00;;;;4941529;28;82732;-65
2021/10/23 04:07:26;;;;;;;3.93;1.13;;;5.00;99.90;4.80;101090.00;;;;4942337;28;112144;-64
2021/10/23 04:09:52;;;;;;;2.47;0.87;;;5.00;99.90;4.80;101103.00;;;;4935670;28;82716;-64
2021/10/23 04:12:17;;;;;;;1.83;0.83;;;4.90;99.90;4.80;101093.00;;;;4942333;28;82190;-66
2021/10/23 04:14:43;;;;;;;3.27;1.57;;;5.00;99.90;4.80;101106.00;;;;4941354;28;82527;-65
2021/10/23 04:17:09;;;;;;;5.33;1.37;;;4.90;99.90;4.80;101100.00;;;;4940031;28;111538;-64
2021/10/23 04:19:34;;;;;;;3.90;1.50;;;4.90;99.90;4.80;101110.00;;;;4940628;28;83950;-65
2021/10/23 04:22:01;;;;;;;1.70;0.97;;;5.00;99.90;4.80;101095.00;;;;4946040;28;85940;-65
2021/10/23 04:24:27;;;;;;;5.53;1.17;;;5.50;99.90;4.70;101099.00;;;;4949215;28;83782;-65
2021/10/23 04:26:54;;;;;;;3.93;0.93;;;4.90;99.90;4.80;101096.00;;;;4958679;28;82572;-64
2021/10/23 04:29:21;;;;;;;1.23;0.63;;;4.90;99.90;4.80;101100.00;;;;4955880;28;82662;-65
2021/10/23 04:31:51;;;;;;;3.17;0.80;;;4.90;99.90;4.80;101108.00;;;;4956428;28;82605;-63
2021/10/23 04:34:17;;;;;;;1.13;0.93;;;4.90;99.90;4.70;101110.00;;;;4936050;28;87990;-64
2021/10/23 04:36:43;;;;;;;2.07;1.27;;;5.00;99.90;4.80;101110.00;;;;4928164;28;117299;-64
2021/10/23 04:39:10;;;;;;;4.73;1.57;;;4.90;99.90;4.70;101122.00;;;;4938637;28;87539;-65
2021/10/23 04:42:04;;;;;;;0.87;0.73;;;4.90;99.90;4.70;101116.00;;;;4948163;28;87878;-63
2021/10/23 04:44:30;;;;;;;2.50;1.07;;;4.90;99.90;4.70;101125.00;;;;4919631;28;88939;-64
2021/10/23 04:46:56;;;;;;;4.07;1.13;;;4.80;99.90;4.70;101131.00;;;;4950257;28;88127;-65
2021/10/23 04:49:34;;;;;;;2.17;0.90;;;4.80;99.90;4.60;101124.00;;;;4938270;28;111025;-63
2021/10/23 04:52:00;;;;;;;3.57;1.17;;;4.80;99.90;4.60;101124.00;;;;4917312;28;87912;-64
2021/10/23 04:54:26;;;;;;;2.57;0.73;;;4.80;99.90;4.70;101131.00;;;;4941926;28;87884;-64
2021/10/23 04:56:52;;;;;;;0.67;0.67;;;5.00;99.90;4.60;101140.00;;;;4936373;28;117277;-65
2021/10/23 04:59:17;;;;;;;2.73;1.07;;;4.80;99.90;4.60;101146.00;;;;4941978;28;110226;-65
2021/10/23 05:01:43;;;;;;;1.80;1.00;;;4.80;99.90;4.60;101138.00;;;;4937448;28;108904;-65
2021/10/23 05:04:12;;;;;;;6.50;1.00;;;4.70;99.90;4.60;101152.00;;;;4938437;28;88399;-64
2021/10/23 05:06:52;;;;;;;4.33;1.27;;;5.30;99.90;4.50;101142.00;;;;4945189;28;117436;-63
2021/10/23 05:09:18;;;;;;;5.30;1.33;;;4.70;99.90;4.60;101137.00;;;;4932844;28;88678;-65
2021/10/23 05:11:44;;;;;;;4.50;1.13;;;4.70;99.90;4.60;101131.00;;;;4921981;28;108466;-65
2021/10/23 05:14:33;;;;;;;4.53;1.20;;;4.70;99.90;4.60;101145.00;;;;4945397;28;116654;-63
2021/10/23 05:16:59;;;;;;;1.27;0.87;;;4.80;99.90;4.60;101148.00;;;;4935908;28;87782;-64
2021/10/23 05:19:25;;;;;;;1.80;0.90;;;5.10;99.90;4.60;101148.00;;;;4939187;28;88655;-65
2021/10/23 05:21:51;;;;;;;2.43;1.33;;;4.80;99.90;4.60;101151.00;;;;4938064;28;108491;-64
2021/10/23 05:24:16;;;;;;;1.37;1.03;;;4.80;99.90;4.60;101145.00;;;;4941939;28;116481;-65
2021/10/23 05:26:42;;;;;;;4.57;0.73;;;4.70;99.90;4.60;101160.00;;;;4921861;28;115890;-65
2021/10/23 05:29:08;;;;;;;2.63;1.13;;;4.80;99.90;4.50;101158.00;;;;4941213;28;88097;-65
2021/10/23 05:31:33;;;;;;;1.43;1.13;;;4.70;99.90;4.50;101161.00;;;;4936986;28;108883;-65
2021/10/23 05:34:27;;;;;;;1.90;0.90;;;4.70;99.90;4.40;101153.00;;;;4938905;28;98844;-63
2021/10/23 05:36:53;;;;;;;3.90;1.03;;;4.70;99.90;4.40;101156.00;;;;4935213;28;88879;-65
2021/10/23 05:39:19;;;;;;;4.27;1.60;;;4.60;99.90;4.40;101162.00;;;;4934336;28;88218;-65
2021/10/23 05:41:45;;;;;;;3.23;1.57;;;4.60;99.90;4.30;101152.00;;;;4932867;28;94842;-64
2021/10/23 05:44:11;;;;;;;7.00;1.63;;;4.50;99.90;4.30;101149.00;;;;4935071;28;87760;-65
2021/10/23 05:46:36;;;;;;;4.83;1.67;;;5.00;99.90;4.30;101158.00;;;;4933125;28;117505;-64
2021/10/23 05:49:02;;;;;;;1.33;0.87;;;4.50;99.90;4.30;101164.00;;;;4935716;28;87742;-66
2021/10/23 05:51:28;;;;;;;1.90;1.10;;;4.50;99.90;4.30;101158.00;;;;4935585;28;86920;-65
2021/10/23 05:53:54;;;;;;;2.50;1.30;;;4.50;99.90;4.20;101155.00;;;;4933319;28;116330;-64
2021/10/23 05:56:21;;;;;;;6.57;1.30;;;4.40;99.90;4.20;101158.00;;;;4933536;28;117343;-65
2021/10/23 05:58:46;;;;;;;1.10;1.00;;;4.40;99.90;4.20;101164.00;;;;4942375;28;89034;-65
2021/10/23 06:01:12;;;;;;;9.03;1.17;;;4.60;99.90;4.20;101170.00;;;;4933882;28;87601;-65
2021/10/23 06:03:39;;;;;;;5.40;1.23;;;4.40;99.90;4.20;101159.00;;;;4937474;28;87985;-65
2021/10/23 06:06:08;;;;;;;2.30;1.17;;;4.30;99.90;4.20;101153.00;;;;4955889;28;88406;-65
2021/10/23 06:08:35;;;;;;;3.83;1.07;;;4.40;99.90;4.20;101166.00;;;;4944022;28;87765;-65
2021/10/23 06:11:01;;;;;;;2.40;1.27;;;4.30;99.90;4.20;101165.00;;;;4933266;28;108652;-65
2021/10/23 06:13:27;;;;;;;5.23;1.63;;;4.70;99.90;4.20;101171.00;;;;4940839;28;100571;-65
2021/10/23 06:15:53;;;;;;;1.77;0.90;;;4.40;99.90;4.20;101170.00;;;;4940699;28;95447;-65
2021/10/23 06:18:19;;;;;;;3.43;1.80;;;4.70;99.90;4.20;101188.00;;;;4930766;28;109914;-65
2021/10/23 06:20:46;;;;;;;7.33;1.33;;;4.40;99.90;4.30;101187.00;;;;4933134;28;87648;-64
2021/10/23 06:23:12;;;;;;;3.17;1.57;;;4.40;99.90;4.30;101188.00;;;;4941751;28;89558;-65
2021/10/23 06:25:38;;;;;;;7.87;1.87;;;4.50;99.90;4.30;101184.00;;;;4934203;28;88936;-65
2021/10/23 06:28:04;;;;;;;1.43;0.83;;;4.60;99.90;4.40;101192.00;;;;4941608;28;87697;-66
2021/10/23 06:30:30;;;;;;;3.23;1.47;;;4.60;99.90;4.50;101203.00;;;;4941240;28;92349;-64
2021/10/23 06:33:06;;;;;;;3.93;2.07;;;4.60;99.90;4.60;101204.00;;;;4944678;28;87563;-63
2021/10/23 06:35:32;;;;;;;13.80;2.53;;;4.80;99.90;4.70;101208.00;;;;4923982;28;116380;-64
2021/10/23 06:37:58;;;;;;;6.70;2.23;;;4.80;99.90;4.90;101199.00;;;;4931241;28;110835;-63
2021/10/23 06:40:24;;;;;;;3.57;1.60;;;4.90;99.90;5.00;101215.00;;;;4935505;28;87148;-65
2021/10/23 06:42:50;;;;;;;7.67;1.60;;;5.10;99.90;5.20;101213.00;;;;4941440;28;87913;-64
2021/10/23 06:45:17;;;;;;;4.40;1.33;;;5.30;99.90;5.40;101219.00;;;;4933108;28;87903;-64
2021/10/23 06:47:43;;;;;;;6.07;1.53;;;5.40;99.90;5.60;101235.00;;;;4935664;28;88405;-65
2021/10/23 06:50:10;;;;;;;1.03;0.93;;;5.60;99.90;5.70;101228.00;;;;4939884;28;87876;-65
2021/10/23 06:52:36;;;;;;;3.07;1.47;;;5.80;99.90;5.90;101237.00;;;;4938607;28;100469;-65
2021/10/23 06:55:04;;;;;;;1.73;1.17;;;6.00;99.90;6.10;101252.00;;;;4932925;28;93237;-66
2021/10/23 06:57:30;;;;;;;2.33;1.03;;;6.10;99.90;6.30;101255.00;;;;4941093;28;87899;-65
2021/10/23 06:59:58;;;;;;;3.70;1.53;;;6.20;99.90;6.50;101260.00;;;;4945888;28;106052;-64
2021/10/23 07:02:24;;;;;;;2.80;1.67;;;6.50;99.90;6.70;101265.00;;;;4940837;28;88268;-64
2021/10/23 07:04:50;;;;;;;4.63;1.57;;;6.70;99.90;6.90;101270.00;;;;4948054;28;87751;-65
2021/10/23 07:07:23;;;;;;;1.53;0.90;;;6.90;99.90;7.10;101270.00;;;;4951661;28;87731;-63
2021/10/23 07:09:48;;;;;;;6.13;1.97;;;7.10;99.90;7.20;101276.00;;;;4941967;28;87705;-65
2021/10/23 07:12:14;;;;;;;3.13;1.83;;;7.20;99.90;7.40;101277.00;;;;4951854;28;114944;-65
2021/10/23 07:14:40;;;;;;;3.00;1.20;;;7.50;99.90;7.60;101292.00;;;;4924654;28;118924;-65
2021/10/23 07:17:06;;;;;;;2.50;1.23;;;7.60;99.90;7.80;101295.00;;;;4940845;28;87811;-64
2021/10/23 07:19:31;;;;;;;2.87;1.07;;;7.80;99.90;7.80;101286.00;;;;4940170;28;87780;-64
2021/10/23 07:21:57;;;;;;;5.27;1.63;;;7.90;99.90;7.80;101290.00;;;;4949792;28;88997;-65
2021/10/23 07:24:45;;;;;;;5.53;1.53;;;7.90;99.90;7.70;101302.00;;;;4939430;28;117442;-64
2021/10/23 07:27:11;;;;;;;3.10;1.30;;;7.90;99.90;7.70;101298.00;;;;4937440;28;87439;-65
2021/10/23 07:29:37;;;;;;;0.90;0.90;;;7.90;99.90;7.60;101308.00;;;;4936755;28;87231;-64
2021/10/23 07:32:03;;;;;;;1.57;1.00;;;7.80;99.90;7.60;101307.00;;;;4940505;28;87745;-65
2021/10/23 07:34:56;;;;;;;4.90;1.67;;;7.70;99.90;7.50;101310.00;;;;4939472;28;97253;-65
2021/10/23 07:37:22;;;;;;;2.77;1.20;;;7.70;99.90;7.60;101304.00;;;;4940784;28;88885;-65
2021/10/23 07:39:48;;;;;;;2.17;1.07;;;7.70;99.90;7.50;101306.00;;;;4943867;28;88714;-64
2021/10/23 07:42:13;;;;;;;2.67;0.93;;;7.60;99.90;7.50;101317.00;;;;4942705;28;87539;-66
2021/10/23 07:44:40;;;;;;;2.67;1.17;;;7.60;99.90;7.50;101323.00;;;;4937480;28;112252;-67
2021/10/23 07:47:06;;;;;;;2.57;1.43;;;7.60;99.90;7.50;101331.00;;;;4941061;28;88420;-66
2021/10/23 07:49:32;;;;;;;3.90;1.37;;;7.60;99.90;7.50;101335.00;;;;4931521;28;108188;-66
2021/10/23 07:51:57;;;;;;;10.60;1.87;;;7.60;99.90;7.50;101335.00;;;;4939502;28;87653;-66
2021/10/23 07:54:48;;;;;;;2.57;1.33;;;7.60;99.90;7.60;101333.00;;;;4935025;28;116799;-64
2021/10/23 07:57:15;;;;;;;5.33;1.33;;;7.70;99.90;7.60;101336.00;;;;4942936;28;88047;-66
2021/10/23 07:59:41;;;;;;;4.37;0.93;;;7.70;99.90;7.60;101351.00;;;;4932125;28;87528;-65
2021/10/23 08:02:07;;;;;;;5.90;1.30;;;7.70;99.90;7.60;101355.00;;;;4927998;28;119517;-65
2021/10/23 08:04:34;;;;;;;8.83;1.40;;;7.80;99.90;7.70;101352.00;;;;4932422;28;93775;-66
2021/10/23 08:07:02;;;;;;;1.10;0.90;;;7.70;99.90;7.70;101361.00;;;;4933431;28;88067;-65
2021/10/23 08:09:30;;;;;;;4.87;1.57;;;7.80;99.90;7.70;101358.00;;;;4934987;28;87928;-65
2021/10/23 08:11:56;;;;;;;3.00;1.40;;;7.80;99.90;7.80;101362.00;;;;4938411;28;108479;-65
2021/10/23 08:14:22;;;;;;;3.13;1.20;;;7.80;99.90;8.00;101358.00;;;;4932641;28;88345;-65
2021/10/23 08:16:47;;;;;;;2.73;1.07;;;8.00;99.90;8.30;101356.00;;;;4933062;28;93270;-65
2021/10/23 08:19:13;;;;;;;4.63;1.80;;;8.20;99.90;8.60;101367.00;;;;4937077;28;107196;-65
2021/10/23 08:21:40;;;;;;;7.47;1.87;;;8.50;99.90;9.00;101373.00;;;;4937368;28;117304;-65
2021/10/23 08:24:08;;;;;;;7.17;2.20;;;8.80;99.90;9.10;101402.00;;;;4939282;28;102945;-65
2021/10/23 08:26:34;;;;;;;3.00;1.63;;;9.10;99.90;9.20;101389.00;;;;4937808;28;88758;-64
2021/10/23 08:28:59;;;;;;;2.63;1.43;;;9.20;99.90;9.30;101396.00;;;;4931730;28;87940;-65
2021/10/23 08:31:25;;;;;;;3.67;1.10;;;9.30;99.90;9.40;101374.00;;;;4927849;28;117959;-65
2021/10/23 08:33:54;;;;;;;2.60;1.47;;;9.40;99.90;9.40;101396.00;;;;4919116;28;90851;-66
2021/10/23 08:36:19;;;;;;;3.77;1.60;;;9.50;99.90;9.50;101394.00;;;;4939771;28;102630;-65
2021/10/23 08:38:45;;;;;;;1.43;1.20;;;9.50;99.90;9.60;101395.00;;;;4935876;28;91925;-65
2021/10/23 08:41:12;;;;;;;4.17;1.50;;;9.60;99.90;9.70;101407.00;;;;4934925;28;88779;-64
2021/10/23 08:43:42;;;;;;;2.73;1.23;;;9.70;99.90;9.90;101401.00;;;;4940039;28;88292;-64
2021/10/23 08:46:21;;;;;;;2.67;1.43;;;9.90;99.90;9.90;101406.00;;;;4941515;28;87921;-65
2021/10/23 08:48:51;;;;;;;3.60;1.57;;;10.00;99.90;10.10;101397.00;;;;4936357;28;87810;-65
2021/10/23 08:51:18;;;;;;;3.20;1.47;;;10.20;99.90;10.50;101412.00;;;;4937944;28;89133;-65
2021/10/23 08:53:44;;;;;;;3.07;1.17;;;10.40;99.90;10.90;101413.00;;;;4936117;28;89485;-65
2021/10/23 08:56:11;;;;;;;5.60;1.70;;;10.80;99.90;11.30;101421.00;;;;4944120;28;109402;-65
2021/10/23 08:58:38;;;;;;;11.07;1.23;;;11.20;99.90;11.40;101425.00;;;;4946313;28;87563;-65
2021/10/23 09:01:06;;;;;;;4.77;1.47;;;11.40;99.20;11.50;101441.00;;;;4949186;28;92442;-64
2021/10/23 09:03:32;;;;;;;1.30;0.77;;;11.40;98.70;11.40;101432.00;;;;4931232;28;88057;-65
2021/10/23 09:05:58;;;;;;;3.37;1.30;;;11.40;97.30;11.30;101430.00;;;;4936822;28;110466;-64
2021/10/23 09:08:25;;;;;;;3.17;1.67;;;11.40;96.80;11.20;101426.00;;;;4940720;28;87437;-65
2021/10/23 09:10:52;;;;;;;1.27;1.17;;;11.30;97.50;11.30;101433.00;;;;4942576;28;88868;-65
2021/10/23 09:13:33;;;;;;;1.37;1.27;;;11.30;97.10;11.50;101426.00;;;;4935909;28;94968;-65
2021/10/23 09:16:16;;;;;;;3.03;1.47;;;11.40;96.80;11.70;101434.00;;;;4933735;28;88842;-64
2021/10/23 09:18:50;;;;;;;5.00;1.00;;;11.60;96.80;11.90;101441.00;;;;4940866;28;87818;-65
2021/10/23 09:21:23;;;;;;;2.80;1.77;;;11.80;95.70;12.20;101429.00;;;;4935712;28;87921;-65
2021/10/23 09:23:52;;;;;;;2.83;1.43;;;12.10;94.40;12.50;101445.00;;;;4941106;28;116149;-64
2021/10/23 09:26:37;;;;;;;4.40;1.50;;;12.30;94.50;12.90;101434.00;;;;4935050;28;106967;-64
2021/10/23 09:29:19;;;;;;;5.63;1.33;;;12.70;94.50;13.30;101436.00;;;;4934218;28;94865;-64
2021/10/23 09:31:48;;;;;;;3.27;0.57;;;13.10;92.20;13.40;101431.00;;;;4935629;28;88032;-64
2021/10/23 09:34:20;;;;;;;2.47;1.13;;;13.20;90.90;13.20;101453.00;;;;4936719;28;87189;-64
2021/10/23 09:36:55;;;;;;;1.83;0.87;;;13.30;87.60;13.00;101448.00;;;;4938288;28;87789;-64
2021/10/23 09:39:32;;;;;;;3.47;1.10;;;13.10;85.00;12.60;101463.00;;;;4934972;28;87989;-64
2021/10/23 09:42:11;;;;;;;0.60;0.50;;;12.80;86.30;12.40;101461.00;;;;4935073;28;88861;-64
2021/10/23 09:45:00;;;;;;;2.67;1.00;;;12.60;87.40;12.20;101472.00;;;;4938993;28;88561;-64
2021/10/23 09:47:27;;;;;;;2.47;1.10;;;12.40;88.10;12.00;101472.00;;;;4941554;28;87977;-64
2021/10/23 09:50:05;;;;;;;5.67;0.77;;;12.20;88.50;11.80;101471.00;;;;4936876;28;87790;-64
2021/10/23 09:52:33;;;;;;;2.17;1.17;;;12.00;89.60;12.00;101477.00;;;;4934750;28;88249;-65
2021/10/23 09:55:07;;;;;;;1.30;0.80;;;12.00;90.30;12.40;101482.00;;;;4935383;28;88213;-65
2021/10/23 09:57:33;;;;;;;6.67;1.30;;;12.30;90.30;12.80;101485.00;;;;4936746;28;87944;-65
2021/10/23 10:00:08;;;;;;;2.13;0.90;;;12.60;90.20;13.10;101477.00;;;;4936942;28;108466;-65
2021/10/23 10:02:38;;;;;;;0.53;0.47;;;12.90;89.50;13.20;101476.00;;;;4935358;28;87781;-64
2021/10/23 10:05:05;;;;;;;2.37;0.83;;;13.20;85.60;13.30;101478.00;;;;4934014;28;88899;-64
2021/10/23 10:07:32;;;;;;;7.07;1.57;;;13.20;85.60;13.70;101468.00;;;;4935090;28;95088;-64
2021/10/23 10:10:00;;;;;;;1.60;0.70;;;13.50;84.10;14.00;101471.00;;;;4938233;28;108385;-64
2021/10/23 10:12:29;;;;;;;5.43;1.63;;;13.80;83.40;14.30;101464.00;;;;4942533;28;88590;-64
2021/10/23 10:14:56;;;;;;;0.87;0.70;;;15.30;80.40;14.40;101484.00;;;;4938155;28;91909;-66
2021/10/23 10:17:22;;;;;;;2.30;1.07;;;14.30;77.20;14.70;101490.00;;;;4936893;28;87765;-65
2021/10/23 10:19:50;;;;;;;1.83;1.00;;;14.50;77.60;15.00;101492.00;;;;4936102;28;108444;-64
2021/10/23 10:22:16;;;;;;;2.70;0.80;;;14.70;77.50;15.40;101474.00;;;;4939251;28;88197;-65
2021/10/23 10:25:19;;;;;;;1.70;1.17;;;15.10;73.90;15.40;101485.00;;;;4952570;28;95971;-65
2021/10/23 10:27:47;;;;;;;6.43;1.13;;;15.30;72.10;15.40;101495.00;;;;4961972;28;87695;-66
2021/10/23 10:30:35;;;;;;;6.17;0.90;;;15.30;69.80;15.20;101512.00;;;;4947924;28;87513;-67
2021/10/23 10:33:21;;;;;;;0.57;0.57;;;15.20;69.20;15.10;101498.00;;;;4954819;28;88529;-65
2021/10/23 10:36:47;;;;;;;2.77;1.27;;;15.10;69.50;15.00;101502.00;;;;4934345;28;89940;-65
2021/10/23 10:39:24;;;;;;;2.57;0.83;;;15.10;67.90;14.80;101505.00;;;;4941603;28;87771;-65
2021/10/23 10:45:40;;;;;;;1.90;0.70;;;14.90;69.30;14.90;101510.00;;;;4931254;28;87746;-66
2021/10/23 10:48:25;;;;;;;3.73;0.97;;;14.90;69.20;14.90;101514.00;;;;4929955;28;87632;-66
2021/10/23 10:50:56;;;;;;;5.60;1.37;;;14.80;68.70;14.70;101500.00;;;;4934994;28;87790;-64
2021/10/23 10:53:25;;;;;;;2.47;1.03;;;14.80;68.20;14.60;101517.00;;;;4959762;28;86355;-65
2021/10/23 10:55:55;;;;;;;2.73;1.00;;;14.60;67.10;14.40;101513.00;;;;4936394;28;91315;-64
2021/10/23 10:58:55;;;;;;;6.20;0.90;;;14.40;68.20;14.40;101523.00;;;;4935114;28;88026;-65
2021/10/23 11:01:30;;;;;;;1.07;0.60;;;14.40;69.40;14.40;101514.00;;;;4931407;28;88714;-65
2021/10/23 11:03:59;;;;;;;3.30;0.90;;;14.30;69.60;14.30;101522.00;;;;4940700;28;87791;-68
2021/10/23 11:06:36;;;;;;;2.97;1.00;;;14.20;69.40;14.10;101505.00;;;;4945871;28;88461;-65